createdAt,value
2022-09-21T00:00:30.493Z,97663.84
2022-09-21T00:02:57.957Z,97659.22
2022-09-21T00:05:24.995Z,97665.16
2022-09-21T00:07:52.142Z,97670.25
2022-09-21T00:10:20.401Z,97662.69
2022-09-21T00:12:48.658Z,97663.75
2022-09-21T00:15:19.836Z,97667.41
2022-09-21T00:17:49.981Z,97664.09
2022-09-21T00:20:16.923Z,97657.59
2022-09-21T00:22:44.252Z,97658.28
2022-09-21T00:25:10.876Z,97656.88
2022-09-21T00:27:37.854Z,97657.47
2022-09-21T00:30:06.872Z,97659.25
2022-09-21T00:32:35.514Z,97662.78
2022-09-21T00:35:03.230Z,97661.16
2022-09-21T00:37:30.690Z,97659.50
2022-09-21T00:39:57.327Z,97658.78
2022-09-21T00:42:26.109Z,97659.03
2022-09-21T00:44:52.788Z,97657.84
2022-09-21T00:47:35.879Z,97661.38
2022-09-21T00:50:07.826Z,97665.75
2022-09-21T00:52:38.204Z,97672.97
2022-09-21T00:55:13.116Z,97659.00
2022-09-21T00:57:39.750Z,97670.25
2022-09-21T01:00:08.948Z,97664.91
2022-09-21T01:02:37.629Z,97668.25
2022-09-21T01:05:06.251Z,97667.19
2022-09-21T01:07:36.954Z,97673.09
2022-09-21T01:10:13.082Z,97674.53
2022-09-21T01:13:07.633Z,97670.41
2022-09-21T01:16:15.984Z,97669.19
2022-09-21T01:19:04.481Z,97673.81
2022-09-21T01:21:38.885Z,97679.13
2022-09-21T01:24:47.907Z,97679.13
2022-09-21T01:27:32.636Z,97671.31
2022-09-21T01:30:02.514Z,97674.88
2022-09-21T01:32:42.258Z,97680.53
2022-09-21T01:35:19.842Z,97677.13
2022-09-21T01:38:01.832Z,97678.66
2022-09-21T01:40:42.223Z,97688.47
2022-09-21T01:43:14.390Z,97681.94
2022-09-21T01:45:49.156Z,97681.50
2022-09-21T01:48:17.417Z,97686.47
2022-09-21T01:50:49.925Z,97683.63
2022-09-21T01:53:38.267Z,97686.44
2022-09-21T01:56:09.953Z,97679.69
2022-09-21T01:58:43.519Z,97687.84
2022-09-21T02:01:15.169Z,97688.47
2022-09-21T02:03:52.098Z,97690.19
2022-09-21T02:06:19.269Z,97692.34
2022-09-21T02:08:46.682Z,97686.16
2022-09-21T02:11:14.026Z,97689.16
2022-09-21T02:13:45.984Z,97692.13
2022-09-21T02:16:12.526Z,97680.28
2022-09-21T02:19:02.715Z,97691.38
2022-09-21T02:21:41.716Z,97688.41
2022-09-21T02:24:26.677Z,97692.28
2022-09-21T02:27:03.538Z,97682.72
2022-09-21T02:29:42.650Z,97690.63
2022-09-21T02:32:09.150Z,97694.09
2022-09-21T02:34:47.265Z,97688.59
2022-09-21T02:37:16.583Z,97687.72
2022-09-21T02:39:45.609Z,97688.31
2022-09-21T02:42:15.183Z,97691.28
2022-09-21T02:44:48.970Z,97690.13
2022-09-21T02:47:24.487Z,97689.88
2022-09-21T02:49:56.665Z,97696.44
2022-09-21T02:52:23.641Z,97698.38
2022-09-21T02:54:52.409Z,97692.59
2022-09-21T02:57:20.765Z,97691.69
2022-09-21T02:59:47.778Z,97696.91
2022-09-21T03:02:14.743Z,97695.56
2022-09-21T03:04:42.448Z,97699.69
2022-09-21T03:07:09.661Z,97698.81
2022-09-21T03:09:36.277Z,97700.16
2022-09-21T03:12:03.182Z,97705.00
2022-09-21T03:14:29.787Z,97704.00
2022-09-21T03:16:56.292Z,97709.34
2022-09-21T03:19:22.847Z,97710.22
2022-09-21T03:21:49.245Z,97718.63
2022-09-21T03:24:35.630Z,97721.34
2022-09-21T03:27:02.191Z,97718.38
2022-09-21T03:29:28.608Z,97721.47
2022-09-21T03:31:56.084Z,97718.38
2022-09-21T03:34:23.013Z,97717.13
2022-09-21T03:36:49.644Z,97726.47
2022-09-21T03:39:16.148Z,97726.53
2022-09-21T03:41:42.657Z,97727.44
2022-09-21T03:44:09.092Z,97726.16
2022-09-21T03:46:35.611Z,97728.75
2022-09-21T03:49:03.077Z,97721.84
2022-09-21T03:51:32.970Z,97729.88
2022-09-21T03:53:59.385Z,97725.16
2022-09-21T03:56:25.835Z,97725.00
2022-09-21T03:58:52.241Z,97728.16
2022-09-21T04:01:18.772Z,97728.81
2022-09-21T04:03:45.267Z,97736.78
2022-09-21T04:06:12.671Z,97731.38
2022-09-21T04:08:39.682Z,97737.44
2022-09-21T04:11:18.809Z,97730.06
2022-09-21T04:13:49.252Z,97732.38
2022-09-21T04:16:15.870Z,97737.53
2022-09-21T04:18:42.425Z,97738.81
2022-09-21T04:21:09.474Z,97734.69
2022-09-21T04:23:35.932Z,97736.97
2022-09-21T04:26:02.849Z,97729.13
2022-09-21T04:28:29.811Z,97733.22
2022-09-21T04:30:56.274Z,97744.09
2022-09-21T04:33:23.978Z,97733.03
2022-09-21T04:35:57.000Z,97727.59
2022-09-21T04:38:23.516Z,97744.97
2022-09-21T04:40:56.655Z,97741.28
2022-09-21T04:43:23.356Z,97742.97
2022-09-21T04:45:49.945Z,97745.38
2022-09-21T04:48:16.571Z,97743.19
2022-09-21T04:50:44.714Z,97752.03
2022-09-21T04:53:11.154Z,97754.63
2022-09-21T04:55:37.613Z,97764.00
2022-09-21T04:58:04.018Z,97756.94
2022-09-21T05:00:30.494Z,97760.03
2022-09-21T05:02:56.904Z,97766.13
2022-09-21T05:05:23.424Z,97761.16
2022-09-21T05:07:49.849Z,97765.97
2022-09-21T05:10:17.162Z,97776.03
2022-09-21T05:12:43.885Z,97771.47
2022-09-21T05:15:11.524Z,97776.16
2022-09-21T05:17:38.244Z,97778.56
2022-09-21T05:20:04.972Z,97774.44
2022-09-21T05:22:31.385Z,97782.97
2022-09-21T05:24:57.816Z,97780.00
2022-09-21T05:27:24.310Z,97774.50
2022-09-21T05:29:50.967Z,97775.44
2022-09-21T05:32:17.391Z,97782.06
2022-09-21T05:34:53.750Z,97780.81
2022-09-21T05:37:32.249Z,97784.53
2022-09-21T05:39:58.996Z,97787.69
2022-09-21T05:42:25.726Z,97790.59
2022-09-21T05:44:53.628Z,97795.78
2022-09-21T05:47:20.053Z,97792.53
2022-09-21T05:49:52.264Z,97793.19
2022-09-21T05:52:32.822Z,97798.69
2022-09-21T05:55:01.965Z,97799.47
2022-09-21T05:57:34.453Z,97803.53
2022-09-21T06:00:07.081Z,97807.03
2022-09-21T06:02:52.456Z,97798.28
2022-09-21T06:05:19.183Z,97801.50
2022-09-21T06:07:47.689Z,97801.50
2022-09-21T06:10:14.529Z,97800.66
2022-09-21T06:12:40.969Z,97801.31
2022-09-21T06:15:10.117Z,97802.81
2022-09-21T06:17:36.574Z,97801.44
2022-09-21T06:20:03.593Z,97802.97
2022-09-21T06:22:30.126Z,97803.75
2022-09-21T06:24:57.557Z,97805.69
2022-09-21T06:27:24.035Z,97808.56
2022-09-21T06:29:50.478Z,97812.25
2022-09-21T06:32:16.898Z,97819.41
2022-09-21T06:34:43.404Z,97820.47
2022-09-21T06:37:09.942Z,97815.28
2022-09-21T06:39:36.398Z,97821.72
2022-09-21T06:42:02.941Z,97821.72
2022-09-21T06:44:30.536Z,97819.03
2022-09-21T06:46:57.000Z,97819.66
2022-09-21T06:49:24.428Z,97821.94
2022-09-21T06:51:50.897Z,97820.22
2022-09-21T06:54:18.453Z,97818.66
2022-09-21T06:56:45.197Z,97815.06
2022-09-21T06:59:11.639Z,97817.34
2022-09-21T07:01:38.253Z,97817.72
2022-09-21T07:04:05.050Z,97810.84
2022-09-21T07:06:31.664Z,97818.56
2022-09-21T07:11:44.917Z,97817.41
2022-09-21T07:14:11.345Z,97813.75
2022-09-21T07:16:38.055Z,97808.88
2022-09-21T07:19:10.984Z,97817.53
2022-09-21T07:21:38.154Z,97809.09
2022-09-21T07:24:08.253Z,97815.13
2022-09-21T07:26:37.634Z,97820.06
2022-09-21T07:29:04.143Z,97814.81
2022-09-21T07:31:30.696Z,97805.78
2022-09-21T07:33:58.366Z,97816.22
2022-09-21T07:36:24.844Z,97816.31
2022-09-21T07:38:51.293Z,97813.38
2022-09-21T07:41:17.824Z,97816.56
2022-09-21T07:43:44.397Z,97821.94
2022-09-21T07:46:12.037Z,97818.41
2022-09-21T07:48:38.476Z,97827.88
2022-09-21T07:51:06.193Z,97818.59
2022-09-21T07:53:37.796Z,97825.06
2022-09-21T07:56:08.669Z,97824.28
2022-09-21T07:58:54.872Z,97820.81
2022-09-21T08:01:21.637Z,97826.38
2022-09-21T08:03:51.950Z,97825.66
2022-09-21T08:06:19.220Z,97825.56
2022-09-21T08:08:47.890Z,97823.97
2022-09-21T08:11:16.319Z,97825.22
2022-09-21T08:13:42.814Z,97828.91
2022-09-21T08:16:09.790Z,97822.44
2022-09-21T08:18:36.976Z,97825.44
2022-09-21T08:21:03.552Z,97819.81
2022-09-21T08:23:30.469Z,97823.22
2022-09-21T08:26:01.151Z,97819.41
2022-09-21T08:28:28.526Z,97824.91
2022-09-21T08:30:58.804Z,97821.25
2022-09-21T08:33:29.543Z,97822.94
2022-09-21T08:35:57.587Z,97809.88
2022-09-21T08:38:24.090Z,97815.41
2022-09-21T08:40:51.827Z,97812.03
2022-09-21T08:43:36.959Z,97821.41
2022-09-21T08:46:09.773Z,97823.84
2022-09-21T08:48:41.096Z,97817.16
2022-09-21T08:51:09.562Z,97814.41
2022-09-21T08:53:42.036Z,97810.69
2022-09-21T08:56:12.462Z,97818.94
2022-09-21T08:58:42.618Z,97811.13
2022-09-21T09:01:21.765Z,97813.13
2022-09-21T09:04:07.254Z,97817.75
2022-09-21T09:06:34.131Z,97810.63
2022-09-21T09:09:12.335Z,97807.16
2022-09-21T09:11:41.953Z,97812.34
2022-09-21T09:14:14.506Z,97806.03
2022-09-21T09:16:43.750Z,97805.06
2022-09-21T09:19:28.930Z,97807.69
2022-09-21T09:21:56.564Z,97797.88
2022-09-21T09:24:34.658Z,97795.13
2022-09-21T09:27:28.419Z,97800.78
2022-09-21T09:29:57.381Z,97789.84
2022-09-21T09:32:29.704Z,97791.03
2022-09-21T09:35:00.717Z,97786.41
2022-09-21T09:37:31.078Z,97781.78
2022-09-21T09:40:00.391Z,97786.53
2022-09-21T09:42:45.868Z,97793.31
2022-09-21T09:45:27.674Z,97789.28
2022-09-21T09:47:57.173Z,97785.63
2022-09-21T09:50:32.108Z,97786.25
2022-09-21T09:53:05.140Z,97782.34
2022-09-21T09:55:48.164Z,97780.84
2022-09-21T09:58:17.834Z,97779.44
2022-09-21T10:00:45.297Z,97768.78
2022-09-21T10:03:19.417Z,97763.72
2022-09-21T10:05:46.252Z,97761.19
2022-09-21T10:08:27.634Z,97759.59
2022-09-21T10:10:54.176Z,97754.69
2022-09-21T10:13:50.057Z,97752.34
2022-09-21T10:16:23.459Z,97758.84
2022-09-21T10:18:56.426Z,97750.63
2022-09-21T10:21:24.908Z,97756.44
2022-09-21T10:24:02.929Z,97751.59
2022-09-21T10:26:37.067Z,97754.69
2022-09-21T10:29:18.945Z,97746.94
2022-09-21T10:32:00.541Z,97746.25
2022-09-21T10:34:30.287Z,97738.94
2022-09-21T10:36:58.222Z,97745.91
2022-09-21T10:39:26.948Z,97731.94
2022-09-21T10:41:53.455Z,97733.91
2022-09-21T10:44:21.514Z,97736.13
2022-09-21T10:46:49.711Z,97741.47
2022-09-21T10:49:27.717Z,97735.44
2022-09-21T10:51:57.929Z,97734.09
2022-09-21T10:54:26.699Z,97743.97
2022-09-21T10:56:54.119Z,97746.72
2022-09-21T10:59:23.813Z,97747.22
2022-09-21T11:01:51.688Z,97759.56
2022-09-21T11:04:22.691Z,97748.00
2022-09-21T11:06:51.683Z,97755.81
2022-09-21T11:09:32.650Z,97757.84
2022-09-21T11:12:06.072Z,97754.59
2022-09-21T11:14:38.543Z,97747.81
2022-09-21T11:17:11.434Z,97742.81
2022-09-21T11:19:44.195Z,97743.28
2022-09-21T11:22:27.564Z,97733.00
2022-09-21T11:25:07.294Z,97739.03
2022-09-21T11:27:36.236Z,97735.94
2022-09-21T11:30:07.234Z,97737.38
2022-09-21T11:32:37.257Z,97732.97
2022-09-21T11:35:18.913Z,97726.34
2022-09-21T11:38:04.683Z,97718.97
2022-09-21T11:40:37.154Z,97717.66
2022-09-21T11:43:21.543Z,97717.38
2022-09-21T11:45:52.470Z,97721.41
2022-09-21T11:48:22.094Z,97716.97
2022-09-21T11:51:03.849Z,97712.53
2022-09-21T11:53:41.984Z,97708.56
2022-09-21T11:56:15.214Z,97708.91
2022-09-21T11:58:41.642Z,97709.50
2022-09-21T12:01:23.662Z,97693.16
2022-09-21T12:03:50.911Z,97702.75
2022-09-21T12:06:43.740Z,97707.31
2022-09-21T12:09:25.429Z,97695.13
2022-09-21T12:11:52.540Z,97689.91
2022-09-21T12:14:22.625Z,97690.84
2022-09-21T12:16:49.152Z,97694.06
2022-09-21T12:19:27.707Z,97687.25
2022-09-21T12:21:58.875Z,97676.94
2022-09-21T12:24:32.011Z,97675.50
2022-09-21T12:27:07.517Z,97675.22
2022-09-21T12:29:38.168Z,97673.94
2022-09-21T12:32:13.949Z,97688.66
2022-09-21T12:34:46.525Z,97685.91
2022-09-21T12:37:21.319Z,97688.75
2022-09-21T12:39:50.913Z,97689.38
2022-09-21T12:42:26.654Z,97689.47
2022-09-21T12:44:56.952Z,97684.91
2022-09-21T12:47:47.886Z,97681.97
2022-09-21T12:50:34.576Z,97682.72
2022-09-21T12:53:01.481Z,97686.50
2022-09-21T12:56:01.163Z,97683.53
2022-09-21T12:58:46.250Z,97679.84
2022-09-21T13:01:15.592Z,97689.81
2022-09-21T13:03:47.106Z,97681.63
2022-09-21T13:06:20.669Z,97693.47
2022-09-21T13:08:47.812Z,97679.03
2022-09-21T13:11:21.062Z,97677.53
2022-09-21T13:13:53.895Z,97675.81
2022-09-21T13:16:24.628Z,97674.31
2022-09-21T13:19:00.039Z,97664.78
2022-09-21T13:21:30.046Z,97672.13
2022-09-21T13:24:01.781Z,97667.06
2022-09-21T13:26:31.526Z,97667.63
2022-09-21T13:28:58.277Z,97659.78
2022-09-21T13:31:41.421Z,97658.94
2022-09-21T13:34:17.416Z,97665.50
2022-09-21T13:36:43.875Z,97660.25
2022-09-21T13:39:14.986Z,97657.47
2022-09-21T13:41:59.389Z,97655.56
2022-09-21T13:44:34.061Z,97653.91
2022-09-21T13:47:02.305Z,97650.03
2022-09-21T13:49:31.816Z,97650.06
2022-09-21T13:52:01.172Z,97641.75
2022-09-21T13:54:36.126Z,97638.94
2022-09-21T13:57:20.567Z,97649.13
2022-09-21T13:59:59.475Z,97642.38
2022-09-21T14:02:32.658Z,97637.72
2022-09-21T14:05:19.456Z,97636.41
2022-09-21T14:07:47.030Z,97636.88
2022-09-21T14:10:18.815Z,97638.56
2022-09-21T14:12:47.881Z,97650.16
2022-09-21T14:15:18.385Z,97637.97
2022-09-21T14:17:45.362Z,97636.94
2022-09-21T14:20:30.757Z,97629.59
2022-09-21T14:23:20.057Z,97635.31
2022-09-21T14:25:53.939Z,97637.00
2022-09-21T14:28:36.750Z,97633.66
2022-09-21T14:31:07.983Z,97632.66
2022-09-21T14:33:46.782Z,97632.41
2022-09-21T14:36:16.686Z,97629.53
2022-09-21T14:38:54.205Z,97635.81
2022-09-21T14:41:23.044Z,97625.97
2022-09-21T14:43:53.236Z,97624.47
2022-09-21T14:46:28.965Z,97618.13
2022-09-21T14:49:14.411Z,97615.28
2022-09-21T14:51:55.747Z,97608.69
2022-09-21T14:54:36.248Z,97607.56
2022-09-21T14:57:02.657Z,97612.13
2022-09-21T14:59:32.144Z,97605.50
2022-09-21T15:01:59.639Z,97597.91
2022-09-21T15:04:45.711Z,97599.56
2022-09-21T15:07:50.107Z,97599.19
2022-09-21T15:10:38.572Z,97602.38
2022-09-21T15:13:08.386Z,97599.09
2022-09-21T15:15:46.456Z,97604.22
2022-09-21T15:18:20.196Z,97591.28
2022-09-21T15:21:13.040Z,97599.00
2022-09-21T15:23:40.259Z,97589.50
2022-09-21T15:26:16.311Z,97601.66
2022-09-21T15:29:08.403Z,97593.50
2022-09-21T15:31:39.308Z,97593.94
2022-09-21T15:34:06.770Z,97594.38
2022-09-21T15:36:38.620Z,97589.81
2022-09-21T15:39:05.742Z,97595.97
2022-09-21T15:41:44.885Z,97589.47
2022-09-21T15:44:11.345Z,97596.81
2022-09-21T15:46:38.138Z,97594.44
2022-09-21T15:49:06.220Z,97594.44
2022-09-21T15:51:39.746Z,97589.25
2022-09-21T15:54:15.057Z,97592.78
2022-09-21T15:56:43.654Z,97589.78
2022-09-21T15:59:14.902Z,97591.31
2022-09-21T16:01:44.480Z,97595.78
2022-09-21T16:04:17.043Z,97595.94
2022-09-21T16:06:46.958Z,97593.66
2022-09-21T16:09:31.516Z,97597.78
2022-09-21T16:11:58.140Z,97602.41
2022-09-21T16:14:43.395Z,97605.53
2022-09-21T16:17:21.163Z,97604.91
2022-09-21T16:19:54.013Z,97605.69
2022-09-21T16:22:50.394Z,97610.59
2022-09-21T16:25:19.813Z,97609.59
2022-09-21T16:27:51.142Z,97610.88
2022-09-21T16:30:36.527Z,97611.31
2022-09-21T16:33:04.845Z,97611.34
2022-09-21T16:35:38.720Z,97605.38
2022-09-21T16:38:10.361Z,97611.47
2022-09-21T16:40:36.890Z,97613.72
2022-09-21T16:43:05.554Z,97611.75
2022-09-21T16:45:32.446Z,97612.78
2022-09-21T16:47:59.622Z,97620.72
2022-09-21T16:50:26.132Z,97617.84
2022-09-21T16:52:52.746Z,97621.03
2022-09-21T16:55:19.605Z,97620.88
2022-09-21T16:57:49.093Z,97626.50
2022-09-21T17:00:20.686Z,97630.31
2022-09-21T17:02:48.251Z,97632.94
2022-09-21T17:05:19.492Z,97631.47
2022-09-21T17:07:53.490Z,97634.75
2022-09-21T17:10:20.467Z,97634.75
2022-09-21T17:12:47.238Z,97638.22
2022-09-21T17:15:13.737Z,97651.38
2022-09-21T17:17:40.200Z,97643.13
2022-09-21T17:20:16.115Z,97649.06
2022-09-21T17:22:42.781Z,97642.75
2022-09-21T17:25:10.352Z,97643.63
2022-09-21T17:27:37.033Z,97638.75
2022-09-21T17:30:03.849Z,97636.91
2022-09-21T17:32:30.352Z,97641.66
2022-09-21T17:35:26.590Z,97642.22
2022-09-21T17:37:53.063Z,97647.25
2022-09-21T17:40:20.804Z,97650.38
2022-09-21T17:42:48.722Z,97651.03
2022-09-21T17:45:27.654Z,97648.59
2022-09-21T17:47:54.344Z,97650.56
2022-09-21T17:50:23.943Z,97652.13
2022-09-21T17:53:10.357Z,97653.84
2022-09-21T17:55:38.069Z,97662.53
2022-09-21T17:58:10.400Z,97664.66
2022-09-21T18:00:52.460Z,97664.47
2022-09-21T18:03:24.489Z,97664.16
2022-09-21T18:05:54.735Z,97662.28
2022-09-21T18:08:21.403Z,97673.66
2022-09-21T18:10:56.980Z,97665.41
2022-09-21T18:13:47.224Z,97674.72
2022-09-21T18:16:13.718Z,97665.53
2022-09-21T18:18:45.908Z,97670.66
2022-09-21T18:21:19.888Z,97676.09
2022-09-21T18:24:00.878Z,97676.88
2022-09-21T18:26:27.430Z,97672.63
2022-09-21T18:29:12.647Z,97676.47
2022-09-21T18:31:50.934Z,97674.53
2022-09-21T18:34:32.521Z,97673.72
2022-09-21T18:37:13.014Z,97675.53
2022-09-21T18:39:42.528Z,97680.06
2022-09-21T18:42:26.280Z,97679.72
2022-09-21T18:45:19.368Z,97681.91
2022-09-21T18:48:08.800Z,97682.56
2022-09-21T18:50:58.275Z,97684.69
2022-09-21T18:53:41.229Z,97676.78
2022-09-21T18:56:08.517Z,97680.28
2022-09-21T18:58:38.702Z,97679.94
2022-09-21T19:01:06.832Z,97685.41
2022-09-21T19:03:33.611Z,97681.97
2022-09-21T19:06:29.394Z,97687.03
2022-09-21T19:09:01.633Z,97678.69
2022-09-21T19:11:34.883Z,97668.94
2022-09-21T19:14:17.976Z,97680.44
2022-09-21T19:16:45.721Z,97681.53
2022-09-21T19:19:30.944Z,97683.94
2022-09-21T19:22:20.304Z,97679.88
2022-09-21T19:25:00.714Z,97686.31
2022-09-21T19:27:34.281Z,97692.47
2022-09-21T19:30:05.966Z,97692.09
2022-09-21T19:32:38.636Z,97677.91
2022-09-21T19:35:25.742Z,97686.25
2022-09-21T19:37:53.701Z,97677.72
2022-09-21T19:40:21.938Z,97685.00
2022-09-21T19:42:52.492Z,97684.16
2022-09-21T19:45:27.115Z,97697.31
2022-09-21T19:47:54.574Z,97688.88
2022-09-21T19:50:26.544Z,97695.38
2022-09-21T19:53:13.187Z,97691.81
2022-09-21T19:55:59.374Z,97682.72
2022-09-21T19:58:44.185Z,97692.94
2022-09-21T20:01:12.503Z,97686.56
2022-09-21T20:03:42.515Z,97690.31
2022-09-21T20:06:16.961Z,97689.06
2022-09-21T20:08:50.177Z,97693.78
2022-09-21T20:11:16.759Z,97697.22
2022-09-21T20:13:53.489Z,97692.00
2022-09-21T20:16:31.950Z,97688.94
2022-09-21T20:19:18.157Z,97686.50
2022-09-21T20:21:47.158Z,97688.16
2022-09-21T20:24:18.107Z,97692.00
2022-09-21T20:26:47.215Z,97694.59
2022-09-21T20:29:13.743Z,97689.38
2022-09-21T20:31:40.480Z,97691.56
2022-09-21T20:34:06.899Z,97692.25
2022-09-21T20:36:33.369Z,97688.94
2022-09-21T20:39:00.039Z,97687.81
2022-09-21T20:41:27.524Z,97696.81
2022-09-21T20:43:53.978Z,97688.53
2022-09-21T20:46:21.577Z,97704.22
2022-09-21T20:48:48.196Z,97703.25
2022-09-21T20:51:14.657Z,97691.25
2022-09-21T20:53:42.127Z,97700.63
2022-09-21T20:56:08.949Z,97705.06
2022-09-21T20:58:35.837Z,97707.75
2022-09-21T21:01:03.264Z,97710.66
2022-09-21T21:03:29.839Z,97706.41
2022-09-21T21:06:13.980Z,97706.38
2022-09-21T21:08:40.457Z,97710.38
2022-09-21T21:11:06.964Z,97707.56
2022-09-21T21:13:33.435Z,97710.66
2022-09-21T21:16:00.259Z,97703.47
2022-09-21T21:18:27.112Z,97704.75
2022-09-21T21:20:53.603Z,97701.84
2022-09-21T21:23:21.046Z,97705.41
2022-09-21T21:25:48.100Z,97707.59
2022-09-21T21:28:15.546Z,97693.75
2022-09-21T21:30:42.001Z,97699.81
2022-09-21T21:33:08.446Z,97697.91
2022-09-21T21:35:35.054Z,97694.91
2022-09-21T21:38:01.556Z,97698.28
2022-09-21T21:40:28.207Z,97691.25
2022-09-21T21:42:55.549Z,97689.53
2022-09-21T21:45:22.129Z,97690.81
2022-09-21T21:47:48.761Z,97688.75
2022-09-21T21:50:15.334Z,97700.16
2022-09-21T21:52:41.826Z,97698.94
2022-09-21T21:55:08.756Z,97687.03
2022-09-21T21:57:35.186Z,97696.59
2022-09-21T22:00:01.767Z,97690.50
2022-09-21T22:02:29.548Z,97686.03
2022-09-21T22:04:57.085Z,97685.69
2022-09-21T22:07:23.785Z,97685.13
2022-09-21T22:09:50.243Z,97690.69
2022-09-21T22:12:16.726Z,97691.44
2022-09-21T22:14:46.424Z,97688.09
2022-09-21T22:17:13.075Z,97682.72
2022-09-21T22:19:39.590Z,97680.19
2022-09-21T22:22:06.061Z,97681.66
2022-09-21T22:24:32.585Z,97680.63
2022-09-21T22:26:59.036Z,97673.56
2022-09-21T22:29:25.509Z,97676.72
2022-09-21T22:31:52.099Z,97678.78
2022-09-21T22:34:18.945Z,97671.56
2022-09-21T22:36:45.531Z,97679.03
2022-09-21T22:39:12.307Z,97684.28
2022-09-21T22:41:39.798Z,97686.47
2022-09-21T22:44:06.558Z,97678.41
2022-09-21T22:46:33.436Z,97686.72
2022-09-21T22:49:00.611Z,97678.69
2022-09-21T22:51:29.154Z,97681.16
2022-09-21T22:53:55.749Z,97686.16
2022-09-21T22:56:23.483Z,97685.38
2022-09-21T22:58:51.197Z,97687.22
2022-09-21T23:01:20.401Z,97682.69
2022-09-21T23:03:48.825Z,97674.03
2022-09-21T23:06:17.745Z,97679.44
2022-09-21T23:08:48.937Z,97677.75
2022-09-21T23:11:16.782Z,97671.41
2022-09-21T23:13:43.240Z,97665.91
2022-09-21T23:16:11.189Z,97661.97
2022-09-21T23:18:38.174Z,97650.88
2022-09-21T23:21:07.725Z,97658.06
2022-09-21T23:23:34.174Z,97663.53
2022-09-21T23:26:05.054Z,97657.09
2022-09-21T23:28:31.693Z,97648.34
2022-09-21T23:31:00.313Z,97648.69
2022-09-21T23:33:53.322Z,97652.28
2022-09-21T23:36:21.228Z,97650.19
2022-09-21T23:38:48.371Z,97647.94
2022-09-21T23:41:16.733Z,97648.84
2022-09-21T23:43:43.876Z,97650.13
2022-09-21T23:46:13.138Z,97655.50
2022-09-21T23:48:39.742Z,97655.13
2022-09-21T23:51:06.776Z,97655.63
2022-09-21T23:53:33.548Z,97653.59
2022-09-21T23:56:00.071Z,97656.78
2022-09-21T23:58:27.214Z,97651.09
